createdAt,value
2018-03-06T00:01:18.154Z,86.70
2018-03-06T00:04:21.777Z,86.30
2018-03-06T00:07:25.386Z,86.40
2018-03-06T00:10:28.858Z,86.40
2018-03-06T00:13:32.289Z,86.40
2018-03-06T00:16:35.769Z,86.20
2018-03-06T00:19:39.302Z,86.20
2018-03-06T00:22:42.709Z,86.30
2018-03-06T00:25:47.185Z,86.10
2018-03-06T00:28:59.599Z,86.50
2018-03-06T00:32:05.174Z,86.80
2018-03-06T00:35:08.871Z,86.50
2018-03-06T00:38:12.367Z,86.10
2018-03-06T00:41:15.802Z,86.10
2018-03-06T00:44:19.286Z,86.40
2018-03-06T00:47:22.673Z,86.70
2018-03-06T00:50:26.071Z,86.80
2018-03-06T00:53:30.180Z,86.70
2018-03-06T00:56:33.510Z,86.60
2018-03-06T00:59:36.971Z,86.50
2018-03-06T01:02:40.398Z,86.60
2018-03-06T01:05:43.853Z,86.50
2018-03-06T01:08:47.986Z,87.50
2018-03-06T01:11:52.125Z,87.40
2018-03-06T01:14:55.547Z,86.90
2018-03-06T01:17:58.907Z,86.80
2018-03-06T01:21:02.398Z,86.80
2018-03-06T01:24:06.491Z,87.00
2018-03-06T01:27:10.658Z,87.20
2018-03-06T01:30:14.000Z,86.80
2018-03-06T01:33:18.108Z,87.20
2018-03-06T01:36:21.478Z,87.00
2018-03-06T01:39:25.140Z,87.20
2018-03-06T01:42:29.385Z,88.00
2018-03-06T01:45:32.958Z,87.60
2018-03-06T01:48:36.412Z,87.10
2018-03-06T01:51:51.645Z,87.10
2018-03-06T01:54:55.752Z,87.30
2018-03-06T01:58:00.716Z,87.00
2018-03-06T02:01:04.993Z,86.80
2018-03-06T02:04:09.328Z,87.30
2018-03-06T02:07:13.427Z,87.20
2018-03-06T02:10:16.908Z,87.00
2018-03-06T02:13:21.014Z,87.10
2018-03-06T02:16:24.418Z,86.70
2018-03-06T02:19:27.912Z,86.60
2018-03-06T02:22:31.279Z,86.50
2018-03-06T02:25:34.615Z,87.10
2018-03-06T02:28:38.138Z,87.50
2018-03-06T02:31:41.505Z,87.80
2018-03-06T02:34:44.902Z,87.50
2018-03-06T02:37:48.269Z,87.20
2018-03-06T02:40:51.823Z,87.30
2018-03-06T02:43:56.056Z,87.40
2018-03-06T02:46:59.516Z,87.00
2018-03-06T02:50:03.012Z,86.90
2018-03-06T02:53:06.341Z,87.50
2018-03-06T02:56:09.712Z,87.70
2018-03-06T02:59:13.369Z,87.50
2018-03-06T03:02:16.829Z,87.00
2018-03-06T03:05:20.436Z,87.20
2018-03-06T03:08:23.867Z,87.20
2018-03-06T03:11:27.276Z,87.10
2018-03-06T03:14:31.402Z,87.70
2018-03-06T03:17:34.773Z,87.30
2018-03-06T03:20:38.226Z,87.30
2018-03-06T03:23:41.564Z,87.60
2018-03-06T03:26:44.856Z,87.20
2018-03-06T03:29:48.221Z,86.90
2018-03-06T03:32:51.607Z,87.10
2018-03-06T03:35:54.962Z,87.20
2018-03-06T03:38:58.247Z,86.90
2018-03-06T03:42:01.979Z,86.50
2018-03-06T03:45:05.314Z,86.30
2018-03-06T03:48:08.644Z,86.10
2018-03-06T03:51:11.910Z,86.20
2018-03-06T03:54:15.293Z,86.40
2018-03-06T03:57:18.610Z,86.80
2018-03-06T04:00:21.931Z,86.90
2018-03-06T04:03:25.261Z,86.90
2018-03-06T04:06:28.660Z,87.20
2018-03-06T04:09:32.002Z,87.10
2018-03-06T04:12:35.338Z,87.30
2018-03-06T04:15:38.705Z,87.10
2018-03-06T04:18:47.566Z,87.10
2018-03-06T04:21:50.920Z,87.20
2018-03-06T04:24:55.188Z,87.00
2018-03-06T04:27:59.365Z,87.70
2018-03-06T04:31:03.929Z,87.70
2018-03-06T04:34:08.089Z,87.30
2018-03-06T04:37:11.451Z,87.00
2018-03-06T04:40:15.553Z,87.40
2018-03-06T04:43:19.222Z,87.10
2018-03-06T04:46:22.550Z,87.10
2018-03-06T04:49:25.910Z,87.10
2018-03-06T04:52:29.256Z,86.90
2018-03-06T04:55:32.636Z,86.80
2018-03-06T04:58:35.943Z,86.90
2018-03-06T05:01:39.289Z,86.80
2018-03-06T05:04:42.834Z,87.50
2018-03-06T05:07:46.156Z,86.60
2018-03-06T05:10:50.277Z,86.90
2018-03-06T05:13:53.649Z,86.70
2018-03-06T05:16:57.030Z,87.00
2018-03-06T05:20:00.454Z,86.90
2018-03-06T05:23:04.571Z,87.50
2018-03-06T05:26:07.943Z,87.30
2018-03-06T05:29:11.314Z,87.30
2018-03-06T05:32:15.428Z,87.70
2018-03-06T05:35:18.791Z,87.50
2018-03-06T05:38:22.148Z,87.20
2018-03-06T05:41:25.495Z,86.50
2018-03-06T05:44:28.823Z,86.70
2018-03-06T05:47:32.216Z,86.60
2018-03-06T05:50:35.535Z,86.40
2018-03-06T05:53:38.944Z,86.50
2018-03-06T05:56:42.349Z,86.80
2018-03-06T05:59:45.734Z,86.60
2018-03-06T06:02:49.145Z,86.90
2018-03-06T06:05:52.464Z,86.90
2018-03-06T06:08:55.836Z,86.70
2018-03-06T06:11:59.246Z,87.40
2018-03-06T06:15:02.706Z,86.70
2018-03-06T06:18:06.736Z,87.10
2018-03-06T06:21:10.096Z,86.90
2018-03-06T06:24:14.236Z,86.40
2018-03-06T06:27:18.412Z,86.40
2018-03-06T06:30:21.754Z,86.30
2018-03-06T06:33:25.187Z,86.30
2018-03-06T06:36:28.555Z,86.30
2018-03-06T06:39:31.919Z,85.90
2018-03-06T06:42:36.047Z,85.50
2018-03-06T06:45:39.364Z,85.10
2018-03-06T06:48:43.447Z,84.40
2018-03-06T06:51:46.804Z,84.30
2018-03-06T06:54:50.476Z,84.40
2018-03-06T06:57:54.533Z,83.70
2018-03-06T07:00:57.857Z,83.60
2018-03-06T07:04:01.300Z,83.60
2018-03-06T07:07:05.505Z,82.70
2018-03-06T07:10:08.816Z,82.50
2018-03-06T07:13:13.079Z,82.30
2018-03-06T07:16:16.402Z,82.00
2018-03-06T07:19:19.736Z,82.30
2018-03-06T07:22:23.018Z,81.30
2018-03-06T07:25:27.131Z,81.50
2018-03-06T07:28:30.457Z,80.90
2018-03-06T07:31:33.758Z,80.80
2018-03-06T07:34:37.107Z,81.30
2018-03-06T07:37:40.400Z,80.90
2018-03-06T07:40:43.859Z,81.10
2018-03-06T07:43:47.205Z,80.80
2018-03-06T07:46:51.315Z,79.80
2018-03-06T07:49:54.666Z,79.70
2018-03-06T07:52:58.004Z,79.70
2018-03-06T07:56:02.136Z,79.60
2018-03-06T08:02:15.995Z,78.10
2018-03-06T08:05:20.068Z,76.70
2018-03-06T08:08:23.413Z,76.40
2018-03-06T08:11:26.755Z,76.70
2018-03-06T08:14:30.068Z,76.20
2018-03-06T08:17:33.429Z,76.00
2018-03-06T08:20:37.467Z,76.40
2018-03-06T08:23:41.230Z,76.30
2018-03-06T08:26:45.438Z,76.00
2018-03-06T08:29:48.966Z,76.40
2018-03-06T08:32:52.492Z,76.60
2018-03-06T08:35:55.875Z,75.50
2018-03-06T08:38:59.254Z,75.20
2018-03-06T08:42:02.644Z,73.60
2018-03-06T08:45:05.932Z,74.10
2018-03-06T08:48:10.019Z,72.10
2018-03-06T08:51:13.389Z,71.90
2018-03-06T08:54:16.674Z,71.60
2018-03-06T08:57:20.760Z,72.30
2018-03-06T09:00:24.174Z,72.20
2018-03-06T09:03:28.274Z,72.00
2018-03-06T09:06:31.939Z,71.70
2018-03-06T09:09:35.221Z,71.40
2018-03-06T09:12:39.267Z,71.40
2018-03-06T09:15:42.731Z,71.30
2018-03-06T09:18:46.199Z,70.90
2018-03-06T09:21:49.465Z,69.90
2018-03-06T09:24:52.759Z,69.20
2018-03-06T09:27:56.100Z,68.80
2018-03-06T09:31:00.161Z,67.70
2018-03-06T09:34:03.508Z,67.50
2018-03-06T09:37:07.654Z,65.60
2018-03-06T09:40:11.737Z,66.80
2018-03-06T09:43:15.082Z,66.70
2018-03-06T09:46:18.493Z,67.20
2018-03-06T09:49:21.796Z,65.90
2018-03-06T09:52:26.079Z,65.20
2018-03-06T09:55:29.437Z,65.00
2018-03-06T09:58:33.592Z,63.40
2018-03-06T10:01:37.021Z,63.10
2018-03-06T10:04:40.426Z,62.60
2018-03-06T10:07:43.863Z,61.10
2018-03-06T10:10:47.982Z,62.70
2018-03-06T10:13:51.346Z,62.50
2018-03-06T10:16:54.759Z,61.30
2018-03-06T10:19:58.024Z,60.80
2018-03-06T10:23:01.366Z,58.90
2018-03-06T10:26:04.714Z,58.10
2018-03-06T10:29:08.001Z,58.10
2018-03-06T10:32:11.321Z,59.40
2018-03-06T10:35:14.693Z,60.70
2018-03-06T10:38:18.022Z,60.00
2018-03-06T10:41:22.131Z,59.00
2018-03-06T10:44:25.875Z,58.80
2018-03-06T10:47:29.148Z,59.70
2018-03-06T10:50:32.516Z,61.70
2018-03-06T10:53:35.812Z,61.90
2018-03-06T10:56:39.105Z,62.30
2018-03-06T10:59:42.516Z,60.60
2018-03-06T11:02:45.833Z,59.60
2018-03-06T11:05:49.177Z,59.10
2018-03-06T11:08:52.509Z,57.70
2018-03-06T11:11:55.926Z,57.10
2018-03-06T11:14:59.252Z,56.20
2018-03-06T11:18:03.512Z,57.50
2018-03-06T11:21:06.872Z,57.40
2018-03-06T11:24:10.216Z,57.70
2018-03-06T11:27:13.573Z,57.60
2018-03-06T11:30:16.932Z,56.60
2018-03-06T11:33:20.228Z,56.40
2018-03-06T11:36:23.526Z,56.60
2018-03-06T11:39:26.944Z,56.90
2018-03-06T11:42:30.273Z,56.50
2018-03-06T11:45:33.620Z,57.00
2018-03-06T11:48:36.939Z,56.30
2018-03-06T11:51:40.255Z,54.80
2018-03-06T11:54:43.663Z,56.70
2018-03-06T11:57:47.724Z,56.80
2018-03-06T12:00:51.174Z,56.70
2018-03-06T12:03:55.368Z,56.50
2018-03-06T12:06:58.683Z,56.40
2018-03-06T12:10:01.976Z,56.10
2018-03-06T12:13:05.342Z,56.40
2018-03-06T12:16:08.700Z,56.90
2018-03-06T12:19:12.036Z,57.10
2018-03-06T12:22:15.337Z,56.50
2018-03-06T12:25:18.663Z,57.90
2018-03-06T12:28:22.862Z,58.10
2018-03-06T12:31:26.238Z,57.90
2018-03-06T12:34:29.600Z,57.80
2018-03-06T12:37:33.027Z,58.50
2018-03-06T12:40:36.353Z,59.30
2018-03-06T12:43:40.462Z,59.30
2018-03-06T12:46:43.982Z,59.30
2018-03-06T12:49:47.363Z,59.40
2018-03-06T12:52:50.661Z,58.80
2018-03-06T12:55:53.978Z,58.50
2018-03-06T12:58:57.322Z,58.80
2018-03-06T13:02:00.657Z,59.40
2018-03-06T13:05:03.995Z,59.90
2018-03-06T13:08:07.379Z,60.10
2018-03-06T13:11:10.713Z,59.80
2018-03-06T13:14:14.030Z,59.60
2018-03-06T13:17:17.337Z,59.50
2018-03-06T13:20:20.692Z,59.00
2018-03-06T13:23:24.032Z,59.10
2018-03-06T13:26:27.432Z,58.80
2018-03-06T13:29:31.627Z,59.60
2018-03-06T13:32:34.977Z,59.40
2018-03-06T13:35:39.080Z,59.20
2018-03-06T13:38:42.464Z,59.00
2018-03-06T13:41:45.843Z,59.00
2018-03-06T13:44:49.175Z,59.10
2018-03-06T13:47:53.286Z,59.60
2018-03-06T13:50:56.648Z,59.50
2018-03-06T13:53:59.973Z,59.40
2018-03-06T13:57:03.325Z,59.50
2018-03-06T14:00:06.676Z,59.40
2018-03-06T14:03:10.062Z,59.50
2018-03-06T14:06:13.397Z,60.30
2018-03-06T14:09:16.831Z,60.40
2018-03-06T14:12:20.284Z,60.40
2018-03-06T14:15:24.437Z,60.90
2018-03-06T14:18:27.772Z,60.60
2018-03-06T14:21:31.225Z,60.20
2018-03-06T14:24:35.288Z,60.80
2018-03-06T14:27:38.657Z,60.60
2018-03-06T14:30:42.110Z,61.00
2018-03-06T14:33:45.592Z,61.40
2018-03-06T14:36:49.703Z,61.90
2018-03-06T14:39:53.919Z,62.70
2018-03-06T14:42:57.248Z,61.90
2018-03-06T14:46:01.368Z,62.40
2018-03-06T14:49:04.773Z,62.10
2018-03-06T14:52:08.102Z,62.00
2018-03-06T14:55:11.471Z,62.40
2018-03-06T14:58:14.870Z,62.30
2018-03-06T15:01:18.948Z,63.80
2018-03-06T15:04:22.325Z,62.80
2018-03-06T15:07:25.638Z,63.10
2018-03-06T15:10:28.992Z,61.70
2018-03-06T15:13:32.355Z,61.30
2018-03-06T15:16:35.628Z,60.40
2018-03-06T15:19:38.926Z,60.60
2018-03-06T15:22:42.421Z,60.40
2018-03-06T15:25:45.758Z,61.20
2018-03-06T15:28:49.056Z,60.80
2018-03-06T15:31:53.127Z,61.20
2018-03-06T15:34:56.456Z,61.10
2018-03-06T15:37:59.724Z,61.50
2018-03-06T15:41:03.631Z,61.20
2018-03-06T15:44:07.026Z,61.10
2018-03-06T15:47:10.502Z,61.20
2018-03-06T15:50:13.903Z,61.20
2018-03-06T15:53:17.348Z,61.60
2018-03-06T15:56:20.709Z,61.50
2018-03-06T15:59:24.204Z,61.30
2018-03-06T16:02:27.575Z,61.30
2018-03-06T16:05:30.959Z,61.30
2018-03-06T16:08:34.371Z,61.50
2018-03-06T16:11:37.786Z,61.40
2018-03-06T16:14:41.214Z,61.90
2018-03-06T16:17:45.457Z,62.80
2018-03-06T16:20:48.890Z,62.50
2018-03-06T16:23:52.334Z,62.60
2018-03-06T16:26:55.722Z,63.00
2018-03-06T16:29:59.245Z,63.80
2018-03-06T16:33:02.660Z,63.90
2018-03-06T16:36:06.068Z,64.30
2018-03-06T16:39:10.210Z,64.90
2018-03-06T16:42:13.649Z,64.60
2018-03-06T16:45:16.997Z,65.00
2018-03-06T16:48:20.427Z,65.40
2018-03-06T16:51:23.845Z,65.50
2018-03-06T16:54:27.299Z,65.60
2018-03-06T16:57:30.577Z,65.90
2018-03-06T17:00:33.844Z,66.50
2018-03-06T17:03:37.157Z,66.90
2018-03-06T17:06:40.428Z,66.60
2018-03-06T17:09:43.864Z,67.00
2018-03-06T17:12:47.215Z,66.80
2018-03-06T17:15:51.350Z,67.30
2018-03-06T17:18:54.714Z,67.20
2018-03-06T17:21:58.764Z,67.70
2018-03-06T17:25:02.058Z,67.60
2018-03-06T17:28:05.329Z,67.90
2018-03-06T17:31:09.388Z,68.90
2018-03-06T17:34:12.693Z,68.10
2018-03-06T17:37:15.982Z,68.40
2018-03-06T17:40:19.265Z,68.60
2018-03-06T17:43:22.582Z,68.50
2018-03-06T17:46:25.926Z,68.60
2018-03-06T17:49:29.981Z,67.60
2018-03-06T17:52:33.230Z,67.60
2018-03-06T17:55:39.440Z,68.00
2018-03-06T17:58:42.821Z,68.10
2018-03-06T18:01:46.126Z,68.50
2018-03-06T18:04:49.439Z,68.70
2018-03-06T18:07:52.731Z,69.10
2018-03-06T18:10:56.148Z,69.20
2018-03-06T18:13:59.441Z,69.50
2018-03-06T18:17:02.902Z,69.70
2018-03-06T18:20:06.226Z,70.00
2018-03-06T18:23:09.535Z,70.20
2018-03-06T18:26:12.907Z,70.30
2018-03-06T18:29:16.232Z,70.60
2018-03-06T18:32:19.611Z,70.60
2018-03-06T18:35:22.942Z,70.60
2018-03-06T18:38:26.492Z,70.80
2018-03-06T18:41:30.109Z,71.00
2018-03-06T18:44:35.467Z,71.00
2018-03-06T18:47:39.026Z,71.40
2018-03-06T18:50:54.433Z,71.00
2018-03-06T18:53:58.312Z,71.80
2018-03-06T18:57:01.888Z,71.40
2018-03-06T19:00:37.547Z,71.50
2018-03-06T19:07:20.630Z,71.90
2018-03-06T19:10:24.476Z,71.80
2018-03-06T19:13:28.146Z,72.00
2018-03-06T19:16:31.649Z,71.70
2018-03-06T19:19:36.005Z,72.30
2018-03-06T19:22:39.315Z,72.00
2018-03-06T19:25:42.802Z,72.90
2018-03-06T19:28:46.166Z,72.20
2018-03-06T19:31:49.515Z,72.60
2018-03-06T19:34:52.807Z,72.90
2018-03-06T19:37:56.235Z,72.70
2018-03-06T19:40:59.502Z,72.70
2018-03-06T19:44:03.629Z,72.80
2018-03-06T19:47:06.933Z,72.60
2018-03-06T19:50:10.235Z,73.00
2018-03-06T19:53:13.695Z,72.80
2018-03-06T19:56:17.862Z,73.50
2018-03-06T19:59:21.944Z,73.40
2018-03-06T20:02:25.377Z,73.20
2018-03-06T20:05:28.802Z,73.20
2018-03-06T20:08:32.163Z,73.20
2018-03-06T20:11:35.458Z,73.50
2018-03-06T20:14:44.526Z,73.60
2018-03-06T20:17:47.874Z,73.90
2018-03-06T20:20:51.213Z,73.50
2018-03-06T20:23:54.513Z,73.70
2018-03-06T20:26:58.713Z,74.50
2018-03-06T20:30:02.079Z,73.30
2018-03-06T20:33:10.998Z,73.70
2018-03-06T20:36:14.441Z,74.10
2018-03-06T20:39:23.393Z,74.00
2018-03-06T20:42:26.788Z,73.80
2018-03-06T20:45:36.043Z,74.20
2018-03-06T20:48:39.405Z,74.50
2018-03-06T20:51:43.052Z,74.50
2018-03-06T20:54:52.279Z,74.70
2018-03-06T20:57:55.625Z,75.60
2018-03-06T21:00:58.973Z,74.50
2018-03-06T21:04:02.534Z,74.80
2018-03-06T21:07:06.612Z,75.40
2018-03-06T21:10:09.941Z,75.20
2018-03-06T21:13:13.247Z,75.20
2018-03-06T21:16:16.549Z,75.50
2018-03-06T21:19:20.660Z,76.00
2018-03-06T21:22:24.792Z,76.00
2018-03-06T21:25:28.964Z,76.20
2018-03-06T21:28:32.466Z,76.00
2018-03-06T21:31:35.790Z,76.00
2018-03-06T21:34:39.863Z,76.10
2018-03-06T21:37:43.408Z,75.90
2018-03-06T21:40:47.558Z,76.30
2018-03-06T21:43:50.911Z,75.80
2018-03-06T21:46:55.077Z,76.50
2018-03-06T21:49:59.159Z,76.70
2018-03-06T21:53:03.343Z,76.70
2018-03-06T21:56:07.477Z,76.80
2018-03-06T21:59:11.599Z,76.70
2018-03-06T22:02:15.115Z,76.50
2018-03-06T22:05:18.510Z,76.50
2018-03-06T22:08:22.611Z,77.10
2018-03-06T22:11:25.916Z,76.80
2018-03-06T22:14:30.075Z,77.30
2018-03-06T22:17:33.398Z,77.10
2018-03-06T22:20:36.806Z,77.00
2018-03-06T22:26:50.054Z,76.50
2018-03-06T22:29:53.337Z,76.60
2018-03-06T22:32:56.795Z,76.40
2018-03-06T22:36:01.131Z,77.00
2018-03-06T22:39:04.648Z,76.70
2018-03-06T22:42:08.060Z,76.90
2018-03-06T22:45:11.511Z,76.90
2018-03-06T22:48:14.902Z,76.90
2018-03-06T22:51:18.291Z,77.00
2018-03-06T22:54:21.603Z,77.30
2018-03-06T22:57:25.054Z,77.50
2018-03-06T23:00:28.408Z,77.50
2018-03-06T23:03:32.556Z,77.70
2018-03-06T23:06:36.343Z,77.00
2018-03-06T23:09:39.862Z,78.00
2018-03-06T23:12:43.811Z,77.60
2018-03-06T23:15:49.308Z,78.50
2018-03-06T23:18:52.670Z,78.20
2018-03-06T23:21:56.273Z,78.70
2018-03-06T23:24:59.634Z,78.10
2018-03-06T23:28:03.072Z,78.10
2018-03-06T23:31:06.424Z,78.10
2018-03-06T23:34:09.784Z,78.50
2018-03-06T23:37:13.176Z,78.30
2018-03-06T23:40:17.332Z,78.70
2018-03-06T23:43:20.699Z,78.30
2018-03-06T23:46:24.909Z,78.90
2018-03-06T23:49:28.343Z,78.50
2018-03-06T23:52:32.433Z,79.30
2018-03-06T23:55:35.969Z,79.10
2018-03-06T23:58:39.281Z,79.20
